Latest Coastal Weather Observations for Cowley Beach (Defence)

IDQ60701

Issued at 12:42 am EST Thursday 11 August 2022 (issued every 10 minutes, with the page automatically refreshed every 10 minutes)

About coastal observations | Map of coastal stations | Coastal observations for QLD | Marine services | Other Formats
Station Details ID: 032194 Name: COWLEY BEACH (DEFENCE) Lat: -17.69 Lon: 146.11 Height: 4.25 m
Data from the previous 72 hours. | See also: Recent months for locations in Queensland
Date/Time
EST
Wind Sea
Height
m
Swell Vis
km
Cloud Weather Temp
°C
Press
MSL
hPa
Rain since
9am
mm
Dir  Spd
kts
Gust
kts
Height
m
Period
s
Dir
11/12:30am ESE 6 12 - - - - - - - 19.8 - 0.6
11/12:00am ESE 6 10 - - - - - - Recent precip. 20.1 - 0.2
 
Date/Time
EST
Wind Sea
Height
m
Swell Vis
km
Cloud Weather Temp
°C
Press
MSL
hPa
Rain since
9am
mm
Dir  Spd
kts
Gust
kts
Height
m
Period
s
Dir
10/11:30pm SE 4 8 - - - - - - - 21.7 - 0.0
10/11:00pm SE 4 9 - - - - - - - 21.5 - 0.0
10/10:30pm SE 3 8 - - - - - - - 21.4 - 0.0
10/10:00pm SE 4 9 - - - - - - - 21.4 - 0.0
10/09:30pm SE 4 8 - - - - - - - 21.6 - 0.0
10/09:00pm SE 5 10 - - - - - - - 21.7 - 0.0
10/08:30pm SE 4 11 - - - - - - - 21.8 - 0.0
10/08:00pm SSE 3 7 - - - - - - - 21.6 - 0.0
10/07:30pm SSE 3 7 - - - - - - - 21.3 - 0.0
10/07:00pm SSE 3 6 - - - - - - - 21.3 - 0.0
10/06:30pm SSE 3 7 - - - - - - - 21.2 - 0.0
10/06:00pm S 3 7 - - - - - - - 21.3 - 0.0
10/05:30pm SSE 4 8 - - - - - - - 21.5 - 0.0
10/05:00pm SSE 3 7 - - - - - - - 21.8 - 0.0
10/04:30pm SSE 5 10 - - - - - - - 21.7 - 0.0
10/04:00pm SSE 5 11 - - - - - - - 22.0 - 0.0
10/03:30pm S 7 12 - - - - - - - 21.6 - 0.0
10/03:00pm SSE 6 13 - - - - - - - 21.3 - 0.0
10/02:30pm S 6 11 - - - - - - - 21.3 - 0.0
10/02:00pm S 6 12 - - - - - - - 21.5 - 0.0
10/01:30pm S 6 12 - - - - - - - 21.7 - 0.0
10/01:00pm S 7 13 - - - - - - - 21.3 - 0.0
10/12:30pm S 7 11 - - - - - - - 21.8 - 0.0
10/12:00pm S 7 13 - - - - - - - 22.1 - 0.0
10/11:30am S 7 14 - - - - - - - 22.3 - 0.0
10/11:00am S 7 12 - - - - - - - 22.2 - 0.0
10/10:30am S 7 12 - - - - - - - 21.6 - 0.0
10/10:00am SSW 7 13 - - - - - - - 21.7 - 0.0
10/09:30am S 3 7 - - - - - - - 21.0 - 0.0
10/09:00am SSW 4 6 - - - - - - - 20.7 - 0.0
10/08:30am S 4 8 - - - - - - - 21.4 - 0.0
10/08:00am SW 3 5 - - - - - - - 18.6 - 0.0
10/07:30am SSW 2 3 - - - - - - - 16.6 - 0.0
10/07:00am SW 3 5 - - - - - - - 15.8 - 0.0
10/06:30am SSW 3 7 - - - - - - - 15.7 - 0.0
10/06:00am SSW 2 4 - - - - - - - 15.8 - 0.0
10/05:30am SSW 1 3 - - - - - - - 15.9 - 0.0
10/05:00am SSW 1 3 - - - - - - - 16.3 - 0.0
10/04:30am SW 3 5 - - - - - - - 15.9 - 0.0
10/04:00am CALM 0 1 - - - - - - - 15.5 - 0.0
10/03:30am SW 3 3 - - - - - - - 15.9 - 0.0
10/03:00am SSW 1 2 - - - - - - - 16.1 - 0.0
10/02:30am WSW 2 3 - - - - - - - 17.0 - 0.0
10/02:00am SSW 2 3 - - - - - - - 18.3 - 0.0
10/01:30am ESE 3 7 - - - - - - - 20.7 - 0.0
10/01:00am SSE 3 6 - - - - - - - 20.8 - 0.0
10/12:30am ESE 3 6 - - - - - - - 20.9 - 0.0
10/12:00am ESE 4 7 - - - - - - - 21.1 - 0.0
 
Date/Time
EST
Wind Sea
Height
m
Swell Vis
km
Cloud Weather Temp
°C
Press
MSL
hPa
Rain since
9am
mm
Dir  Spd
kts
Gust
kts
Height
m
Period
s
Dir
09/11:30pm ESE 3 6 - - - - - - - 20.7 - 0.0
09/11:00pm ESE 3 8 - - - - - - - 21.0 - 0.0
09/10:30pm SE 2 5 - - - - - - - 21.0 - 0.0
09/10:00pm SSE 3 6 - - - - - - - 20.6 - 0.0
09/09:30pm ESE 3 8 - - - - - - - 20.8 - 0.0
09/09:00pm ESE 3 7 - - - - - - - 21.1 - 0.0
09/08:30pm ESE 3 5 - - - - - - - 21.0 - 0.0
09/08:00pm SE 2 6 - - - - - - - 21.0 - 0.0
09/07:30pm ESE 3 5 - - - - - - - 20.9 - 0.0
09/07:00pm ESE 3 6 - - - - - - - 20.7 - 0.0
09/06:30pm SSE 3 6 - - - - - - - 20.6 - 0.0
09/06:00pm ESE 4 9 - - - - - - - 20.7 - 0.0
09/05:30pm SE 3 7 - - - - - - - 20.9 - 0.0
09/05:00pm ESE 3 7 - - - - - - - 21.4 - 0.0
09/04:30pm SSE 3 7 - - - - - - - 21.2 - 0.0
09/04:00pm SSE 4 9 - - - - - - - 21.3 - 0.0
09/03:30pm SE 4 10 - - - - - - - 21.6 - 0.0
09/03:00pm SSE 4 8 - - - - - - - 21.4 - 0.0
09/02:30pm SSE 5 10 - - - - - - - 21.2 - 0.0
09/02:00pm S 5 11 - - - - - - - 21.4 - 0.0
09/01:30pm SSE 4 9 - - - - - - - 21.6 - 0.0
09/01:00pm SSE 4 9 - - - - - - - 21.6 - 0.0
09/12:30pm S 4 10 - - - - - - - 21.6 - 0.0
09/12:00pm SE 3 6 - - - - - - - 21.8 - 0.0
09/11:30am SSE 3 8 - - - - - - - 22.0 - 0.0
09/11:00am SE 4 8 - - - - - - - 22.2 - 0.0
09/10:30am SE 4 7 - - - - - - - 22.1 - 0.0
09/10:00am SE 4 8 - - - - - - - 22.2 - 0.0
09/09:30am SE 3 8 - - - - - - - 22.0 - 0.0
09/09:00am ESE 4 8 - - - - - - - 22.2 - 0.2
09/08:30am SE 5 9 - - - - - - - 22.3 - 0.2
09/08:00am ESE 5 9 - - - - - - - 22.8 - 0.2
09/07:30am SE 5 9 - - - - - - - 22.0 - 0.2
09/07:00am SE 5 10 - - - - - - - 21.9 - 0.2
09/06:30am ESE 5 10 - - - - - - - 21.9 - 0.2
09/06:00am ESE 5 9 - - - - - - - 21.8 - 0.2
09/05:30am ESE 5 11 - - - - - - - 21.9 - 0.2
09/05:00am SE 5 10 - - - - - - - 22.0 - 0.2
09/04:30am SE 5 11 - - - - - - - 22.1 - 0.2
09/04:00am SE 6 13 - - - - - - - 22.2 - 0.2
09/03:30am ESE 5 9 - - - - - - - 22.2 - 0.2
09/03:00am SE 5 10 - - - - - - - 22.2 - 0.2
09/02:30am ESE 5 9 - - - - - - - 22.2 - 0.2
09/02:00am SE 4 8 - - - - - - - 22.3 - 0.2
09/01:30am ESE 4 8 - - - - - - - 22.3 - 0.2
09/01:00am SE 5 9 - - - - - - - 22.4 - 0.2
09/12:30am ESE 4 8 - - - - - - - 22.7 - 0.2
09/12:00am SE 3 7 - - - - - - - 22.8 - 0.2
 
Date/Time
EST
Wind Sea
Height
m
Swell Vis
km
Cloud Weather Temp
°C
Press
MSL
hPa
Rain since
9am
mm
Dir  Spd
kts
Gust
kts
Height
m
Period
s
Dir
08/11:30pm SE 4 8 - - - - - - - 22.9 - 0.2
08/11:00pm ESE 3 7 - - - - - - - 22.8 - 0.2
08/10:30pm ESE 3 7 - - - - - - - 22.8 - 0.2
08/10:00pm ESE 4 9 - - - - - - - 22.8 - 0.2
08/09:30pm SE 4 8 - - - - - - - 22.9 - 0.2
08/09:00pm SE 4 8 - - - - - - - 22.8 - 0.2
08/08:30pm ESE 5 10 - - - - - - - 22.8 - 0.2
08/08:00pm ESE 6 13 - - - - - - - 22.8 - 0.2
08/07:30pm ESE 5 10 - - - - - - - 22.7 - 0.2
08/07:00pm SE 5 11 - - - - - - - 22.7 - 0.2
08/06:30pm ESE 5 9 - - - - - - - 22.7 - 0.2
08/06:00pm SE 5 9 - - - - - - - 22.7 - 0.2
08/05:30pm SE 4 8 - - - - - - - 22.8 - 0.2
08/05:00pm SE 4 9 - - - - - - - 22.9 - 0.2
08/04:30pm SE 3 7 - - - - - - - 23.1 - 0.2
08/04:00pm SE 3 7 - - - - - - - 23.3 - 0.2
08/03:30pm ESE 3 8 - - - - - - - 23.4 - 0.2
08/03:00pm ESE 3 6 - - - - - - - 23.5 - 0.2
08/02:30pm ESE 4 7 - - - - - - - 23.7 - 0.2
08/02:00pm SE 4 8 - - - - - - - 25.0 - 0.2
08/01:30pm E 3 6 - - - - - - - 24.6 - 0.2
08/01:00pm ESE 4 9 - - - - - - - 23.6 - 0.2
08/12:30pm ESE 4 7 - - - - - - - 23.7 - 0.2
08/12:00pm E 3 9 - - - - - - Recent precip. 24.3 - 0.2
08/11:30am ESE 3 7 - - - - - - - 24.7 - 0.2
08/11:00am ESE 4 8 - - - - - - - 25.3 - 0.0
08/10:30am ESE 4 8 - - - - - - - 25.6 - 0.0
08/10:00am ESE 4 9 - - - - - - - 24.1 - 0.0
08/09:30am SE 4 8 - - - - - - - 23.9 - 0.0
08/09:00am SE 2 5 - - - - - - - 23.4 - 8.4
08/08:30am E 2 5 - - - - - - - 22.7 - 8.4
08/08:00am ESE 3 6 - - - - - - - 22.2 - 8.4
08/07:30am W 1 3 - - - - - - - 21.0 - 8.4
08/07:00am WSW 2 5 - - - - - - - 20.8 - 2.6
08/06:30am SW 3 5 - - - - - - - 20.6 - 2.4
08/06:00am WSW 4 5 - - - - - - Recent precip. 20.6 - 2.2
08/05:30am WSW 2 4 - - - - - - - 20.7 - 2.0
08/05:00am WSW 2 4 - - - - - - - 20.6 - 2.0
08/04:30am WSW 1 2 - - - - - - - 20.5 - 2.0
08/04:00am WSW 2 4 - - - - - - - 20.5 - 1.8
08/03:30am NNE 1 4 - - - - - - - 20.5 - 1.8
08/03:00am WSW 1 2 - - - - - - Rain 20.3 - 0.6
08/02:30am WSW 2 3 - - - - - - - 20.1 - 0.0
08/02:00am WSW 3 4 - - - - - - - 20.1 - 0.0
08/01:30am WSW 3 5 - - - - - - - 19.9 - 0.0
08/01:00am WSW 3 5 - - - - - - - 19.8 - 0.0

Other formats

Comma delimited format used in spreadsheet applications
http://www.bom.gov.au/fwo/IDQ60701/IDQ60701.99218.axf

JavaScript Object Notation format (JSON) in row-major order
http://www.bom.gov.au/fwo/IDQ60701/IDQ60701.99218.json

Data quality

Most of these data are generated automatically and are frequently updated. Quality checks on data are not normally performed. It is possible for incorrect values to appear. Refer to information at About Latest Weather Observations and please check the disclaimer before using these data.